createdAt,value
2023-03-11T00:00:31.095Z,82.90
2023-03-11T00:03:00.789Z,82.90
2023-03-11T00:05:32.289Z,83.00
2023-03-11T00:08:00.884Z,83.00
2023-03-11T00:10:34.200Z,83.00
2023-03-11T00:13:02.626Z,83.00
2023-03-11T00:15:31.395Z,83.10
2023-03-11T00:17:59.287Z,83.10
2023-03-11T00:20:32.748Z,83.10
2023-03-11T00:23:01.217Z,83.10
2023-03-11T00:25:30.832Z,83.10
2023-03-11T00:27:59.068Z,83.00
2023-03-11T00:30:27.273Z,83.00
2023-03-11T00:32:57.262Z,83.10
2023-03-11T00:35:27.847Z,83.00
2023-03-11T00:37:58.144Z,83.00
2023-03-11T00:40:27.996Z,83.00
2023-03-11T00:42:55.753Z,83.00
2023-03-11T00:45:23.822Z,83.10
2023-03-11T00:47:52.957Z,83.20
2023-03-11T00:50:29.852Z,83.20
2023-03-11T00:52:57.667Z,83.20
2023-03-11T00:55:28.634Z,83.20
2023-03-11T00:57:58.570Z,83.20
2023-03-11T01:00:28.022Z,83.20
2023-03-11T01:02:56.348Z,83.20
2023-03-11T01:05:28.020Z,83.10
2023-03-11T01:07:55.847Z,83.20
2023-03-11T01:10:23.632Z,83.20
2023-03-11T01:12:51.195Z,83.20
2023-03-11T01:15:22.621Z,83.30
2023-03-11T01:17:50.466Z,83.30
2023-03-11T01:20:18.360Z,83.20
2023-03-11T01:22:45.946Z,83.20
2023-03-11T01:25:15.617Z,83.30
2023-03-11T01:27:43.811Z,83.40
2023-03-11T01:30:16.365Z,83.30
2023-03-11T01:32:44.160Z,83.00
2023-03-11T01:35:16.433Z,83.20
2023-03-11T01:37:44.608Z,83.40
2023-03-11T01:40:18.160Z,83.20
2023-03-11T01:42:45.732Z,83.20
2023-03-11T01:45:19.503Z,83.20
2023-03-11T01:47:46.994Z,83.20
2023-03-11T01:50:14.709Z,82.90
2023-03-11T01:52:43.993Z,82.90
2023-03-11T01:55:13.989Z,82.90
2023-03-11T01:57:44.095Z,83.00
2023-03-11T02:00:13.591Z,82.80
2023-03-11T02:02:51.667Z,82.70
2023-03-11T02:05:21.944Z,82.90
2023-03-11T02:07:50.866Z,82.80
2023-03-11T02:10:19.092Z,82.80
2023-03-11T02:12:48.723Z,82.60
2023-03-11T02:15:16.360Z,82.60
2023-03-11T02:17:44.480Z,82.60
2023-03-11T02:20:30.534Z,82.70
2023-03-11T02:23:00.231Z,82.70
2023-03-11T02:25:35.036Z,82.90
2023-03-11T02:28:05.910Z,82.70
2023-03-11T02:30:35.054Z,82.60
2023-03-11T02:33:03.416Z,82.70
2023-03-11T02:35:31.970Z,82.40
2023-03-11T02:37:59.535Z,82.80
2023-03-11T02:40:40.089Z,82.50
2023-03-11T02:43:11.927Z,82.50
2023-03-11T02:45:40.359Z,82.50
2023-03-11T02:48:10.666Z,82.60
2023-03-11T02:50:38.853Z,82.70
2023-03-11T02:53:06.883Z,82.40
2023-03-11T02:55:34.525Z,82.20
2023-03-11T02:58:02.412Z,82.30
2023-03-11T03:00:30.052Z,82.30
2023-03-11T03:02:57.888Z,82.30
2023-03-11T03:05:25.671Z,82.30
2023-03-11T03:07:53.244Z,82.20
2023-03-11T03:10:22.622Z,82.20
2023-03-11T03:12:50.407Z,82.20
2023-03-11T03:15:18.101Z,82.30
2023-03-11T03:17:46.521Z,82.20
2023-03-11T03:20:15.365Z,82.00
2023-03-11T03:22:43.630Z,82.10
2023-03-11T03:25:11.510Z,82.50
2023-03-11T03:27:39.446Z,82.30
2023-03-11T03:30:08.402Z,82.30
2023-03-11T03:32:36.818Z,82.20
2023-03-11T03:35:05.562Z,82.00
2023-03-11T03:37:34.881Z,82.10
2023-03-11T03:40:04.023Z,82.10
2023-03-11T03:42:32.110Z,82.10
2023-03-11T03:44:59.672Z,82.00
2023-03-11T03:47:27.194Z,81.90
2023-03-11T03:49:54.767Z,82.50
2023-03-11T03:52:22.333Z,81.70
2023-03-11T03:54:49.911Z,81.80
2023-03-11T03:57:17.807Z,81.80
2023-03-11T03:59:45.330Z,81.80
2023-03-11T04:02:12.956Z,81.70
2023-03-11T04:04:40.715Z,81.70
2023-03-11T04:07:08.275Z,81.70
2023-03-11T04:09:35.854Z,81.60
2023-03-11T04:12:03.455Z,81.70
2023-03-11T04:14:31.195Z,81.70
2023-03-11T04:16:58.875Z,81.80
2023-03-11T04:19:26.512Z,81.60
2023-03-11T04:21:54.190Z,81.70
2023-03-11T04:24:21.933Z,81.60
2023-03-11T04:26:49.469Z,81.50
2023-03-11T04:29:17.040Z,81.50
2023-03-11T04:31:44.744Z,81.60
2023-03-11T04:34:12.461Z,81.30
2023-03-11T04:36:40.039Z,81.70
2023-03-11T04:39:08.018Z,81.50
2023-03-11T04:41:35.670Z,81.50
2023-03-11T04:44:03.246Z,81.60
2023-03-11T04:46:30.813Z,81.60
2023-03-11T04:48:58.571Z,81.60
2023-03-11T04:51:26.314Z,81.40
2023-03-11T04:53:53.869Z,81.60
2023-03-11T04:56:21.574Z,81.50
2023-03-11T04:58:49.128Z,81.60
2023-03-11T05:01:16.684Z,81.50
2023-03-11T05:03:44.329Z,81.60
2023-03-11T05:06:11.886Z,81.50
2023-03-11T05:08:39.463Z,81.30
2023-03-11T05:11:07.425Z,81.20
2023-03-11T05:13:35.246Z,81.10
2023-03-11T05:16:02.926Z,81.20
2023-03-11T05:18:32.421Z,81.20
2023-03-11T05:21:00.394Z,81.10
2023-03-11T05:23:27.896Z,81.10
2023-03-11T05:25:55.475Z,80.90
2023-03-11T05:28:23.144Z,80.50
2023-03-11T05:30:50.995Z,80.80
2023-03-11T05:33:18.592Z,80.70
2023-03-11T05:35:46.276Z,80.40
2023-03-11T05:38:13.863Z,80.20
2023-03-11T05:40:41.881Z,80.50
2023-03-11T05:43:09.465Z,80.30
2023-03-11T05:45:37.005Z,80.00
2023-03-11T05:48:04.765Z,79.80
2023-03-11T05:50:35.313Z,79.70
2023-03-11T05:53:02.880Z,79.80
2023-03-11T05:55:31.008Z,80.00
2023-03-11T05:57:58.634Z,79.90
2023-03-11T06:00:29.397Z,79.60
2023-03-11T06:02:57.092Z,79.60
2023-03-11T06:05:24.766Z,79.70
2023-03-11T06:07:52.386Z,78.50
2023-03-11T06:10:19.984Z,80.30
2023-03-11T06:12:47.584Z,80.20
2023-03-11T06:15:15.284Z,80.40
2023-03-11T06:17:42.845Z,80.10
2023-03-11T06:20:11.134Z,80.10
2023-03-11T06:22:40.260Z,80.10
2023-03-11T06:25:08.512Z,80.10
2023-03-11T06:27:36.166Z,80.00
2023-03-11T06:30:04.064Z,79.90
2023-03-11T06:32:31.790Z,79.90
2023-03-11T06:34:59.319Z,79.80
2023-03-11T06:37:26.917Z,80.10
2023-03-11T06:39:57.245Z,79.80
2023-03-11T06:42:24.847Z,79.80
2023-03-11T06:44:52.408Z,80.30
2023-03-11T06:47:20.215Z,79.90
2023-03-11T06:49:48.051Z,79.90
2023-03-11T06:52:15.586Z,79.70
2023-03-11T06:54:43.472Z,79.90
2023-03-11T06:57:12.148Z,79.80
2023-03-11T06:59:40.286Z,79.80
2023-03-11T07:02:13.042Z,79.70
2023-03-11T07:04:40.907Z,79.80
2023-03-11T07:07:08.501Z,79.80
2023-03-11T07:09:36.427Z,79.90
2023-03-11T07:12:06.415Z,80.10
2023-03-11T07:14:34.370Z,79.70
2023-03-11T07:17:02.421Z,79.90
2023-03-11T07:19:30.134Z,80.30
2023-03-11T07:21:57.889Z,80.00
2023-03-11T07:24:25.616Z,80.20
2023-03-11T07:26:53.149Z,80.10
2023-03-11T07:29:21.166Z,79.70
2023-03-11T07:31:49.444Z,79.80
2023-03-11T07:34:17.268Z,79.80
2023-03-11T07:36:45.283Z,79.40
2023-03-11T07:39:16.197Z,80.20
2023-03-11T07:41:44.609Z,80.10
2023-03-11T07:44:13.987Z,80.10
2023-03-11T07:46:41.796Z,80.10
2023-03-11T07:49:09.431Z,80.20
2023-03-11T07:51:38.699Z,80.30
2023-03-11T07:54:06.349Z,80.10
2023-03-11T07:56:35.745Z,80.20
2023-03-11T07:59:05.270Z,80.20
2023-03-11T08:01:36.933Z,80.20
2023-03-11T08:04:07.325Z,80.20
2023-03-11T08:06:36.867Z,80.20
2023-03-11T08:09:07.620Z,80.30
2023-03-11T08:11:35.773Z,80.30
2023-03-11T08:14:04.162Z,80.60
2023-03-11T08:16:32.139Z,81.20
2023-03-11T08:18:59.796Z,80.60
2023-03-11T08:21:32.493Z,80.80
2023-03-11T08:24:02.413Z,80.90
2023-03-11T08:26:31.599Z,81.00
2023-03-11T08:28:59.812Z,81.10
2023-03-11T08:31:32.757Z,81.20
2023-03-11T08:34:03.674Z,81.10
2023-03-11T08:36:31.629Z,81.10
2023-03-11T08:38:59.639Z,81.20
2023-03-11T08:41:28.328Z,81.20
2023-03-11T08:43:55.900Z,81.10
2023-03-11T08:46:28.221Z,81.20
2023-03-11T08:48:58.637Z,81.20
2023-03-11T08:51:28.376Z,81.10
2023-03-11T08:53:56.109Z,81.10
2023-03-11T08:56:23.826Z,81.50
2023-03-11T08:58:52.117Z,81.60
2023-03-11T09:01:20.523Z,81.60
2023-03-11T09:03:48.417Z,81.80
2023-03-11T09:06:17.489Z,81.80
2023-03-11T09:08:46.530Z,82.00
2023-03-11T09:11:15.350Z,82.00
2023-03-11T09:13:43.829Z,82.20
2023-03-11T09:16:17.379Z,82.20
2023-03-11T09:18:46.843Z,82.30
2023-03-11T09:21:14.468Z,82.40
2023-03-11T09:23:44.161Z,82.40
2023-03-11T09:26:13.310Z,82.60
2023-03-11T09:28:42.046Z,82.60
2023-03-11T09:31:09.879Z,82.90
2023-03-11T09:33:41.549Z,82.90
2023-03-11T09:36:16.391Z,83.00
2023-03-11T09:38:47.696Z,83.10
2023-03-11T09:41:24.178Z,83.00
2023-03-11T09:44:25.246Z,83.30
2023-03-11T09:47:20.274Z,83.40
2023-03-11T09:49:59.816Z,83.50
2023-03-11T09:52:39.345Z,83.60
2023-03-11T09:55:21.860Z,83.90
2023-03-11T09:57:50.723Z,83.90
2023-03-11T10:00:20.838Z,84.00
2023-03-11T10:02:49.692Z,84.00
2023-03-11T10:05:30.626Z,84.20
2023-03-11T10:08:03.979Z,84.30
2023-03-11T10:10:39.421Z,84.10
2023-03-11T10:13:35.958Z,84.30
2023-03-11T10:16:27.250Z,84.20
2023-03-11T10:19:08.854Z,84.50
2023-03-11T10:21:40.816Z,84.50
2023-03-11T10:24:14.797Z,84.80
2023-03-11T10:26:53.238Z,84.90
2023-03-11T10:29:44.463Z,84.40
2023-03-11T10:32:38.476Z,84.60
2023-03-11T10:35:24.076Z,84.80
2023-03-11T10:38:01.192Z,84.90
2023-03-11T10:40:52.413Z,84.80
2023-03-11T10:43:32.128Z,84.90
2023-03-11T10:46:00.197Z,84.90
2023-03-11T10:48:27.969Z,84.60
2023-03-11T10:51:12.735Z,84.80
2023-03-11T10:53:53.364Z,84.70
2023-03-11T10:56:37.455Z,85.00
2023-03-11T10:59:32.441Z,85.00
2023-03-11T11:02:34.133Z,84.80
2023-03-11T11:05:16.523Z,84.70
2023-03-11T11:07:46.134Z,84.60
2023-03-11T11:10:25.821Z,84.50
2023-03-11T11:12:59.771Z,84.20
2023-03-11T11:15:34.442Z,84.60
2023-03-11T11:18:05.331Z,84.50
2023-03-11T11:20:34.112Z,84.80
2023-03-11T11:23:04.084Z,84.60
2023-03-11T11:25:33.967Z,84.60
2023-03-11T11:28:19.190Z,84.40
2023-03-11T11:30:58.630Z,84.30
2023-03-11T11:33:31.303Z,83.90
2023-03-11T11:36:02.611Z,84.00
2023-03-11T11:38:32.059Z,83.90
2023-03-11T11:41:03.983Z,83.80
2023-03-11T11:43:56.167Z,84.00
2023-03-11T11:46:27.373Z,84.10
2023-03-11T11:49:07.814Z,84.10
2023-03-11T11:51:59.593Z,84.40
2023-03-11T11:54:32.604Z,84.30
2023-03-11T11:57:02.335Z,84.00
2023-03-11T11:59:31.519Z,83.80
2023-03-11T12:02:21.757Z,83.80
2023-03-11T12:04:55.158Z,84.10
2023-03-11T12:07:45.265Z,84.20
2023-03-11T12:10:48.116Z,84.20
2023-03-11T12:13:30.649Z,83.90
2023-03-11T12:16:06.248Z,83.80
2023-03-11T12:18:38.646Z,84.10
2023-03-11T12:21:33.902Z,84.10
2023-03-11T12:24:21.382Z,84.10
2023-03-11T12:26:51.440Z,84.20
2023-03-11T12:29:30.821Z,84.40
2023-03-11T12:32:02.000Z,84.50
2023-03-11T12:34:31.703Z,84.80
2023-03-11T12:37:03.685Z,84.90
2023-03-11T12:39:36.005Z,84.90
2023-03-11T12:42:12.334Z,84.90
2023-03-11T12:44:41.177Z,84.60
2023-03-11T12:47:09.010Z,84.60
2023-03-11T12:49:37.792Z,84.60
2023-03-11T12:52:06.784Z,84.80
2023-03-11T12:54:37.003Z,85.10
2023-03-11T12:57:11.958Z,85.60
2023-03-11T12:59:57.919Z,85.70
2023-03-11T13:02:47.922Z,85.80
2023-03-11T13:05:43.067Z,86.00
2023-03-11T13:08:17.450Z,86.00
2023-03-11T13:10:53.314Z,86.00
2023-03-11T13:13:29.938Z,86.10
2023-03-11T13:15:58.335Z,86.20
2023-03-11T13:18:30.816Z,86.30
2023-03-11T13:21:03.076Z,86.30
2023-03-11T13:23:37.911Z,86.00
2023-03-11T13:26:25.862Z,86.10
2023-03-11T13:29:15.322Z,85.70
2023-03-11T13:32:01.577Z,85.30
2023-03-11T13:34:46.995Z,85.50
2023-03-11T13:37:41.040Z,85.50
2023-03-11T13:40:28.932Z,85.50
2023-03-11T13:43:03.861Z,85.50
2023-03-11T13:45:35.455Z,85.40
2023-03-11T13:48:14.610Z,85.80
2023-03-11T13:50:57.265Z,85.80
2023-03-11T13:53:37.903Z,86.30
2023-03-11T13:56:06.054Z,87.10
2023-03-11T13:58:33.637Z,87.50
2023-03-11T14:01:02.813Z,87.40
2023-03-11T14:03:41.059Z,87.50
2023-03-11T14:06:12.766Z,87.00
2023-03-11T14:08:40.735Z,87.20
2023-03-11T14:11:10.998Z,87.30
2023-03-11T14:13:43.899Z,87.10
2023-03-11T14:16:44.384Z,87.20
2023-03-11T14:19:17.452Z,87.20
2023-03-11T14:21:52.055Z,87.10
2023-03-11T14:24:23.602Z,87.00
2023-03-11T14:26:56.385Z,87.10
2023-03-11T14:29:32.830Z,87.10
2023-03-11T14:32:00.825Z,87.00
2023-03-11T14:34:30.502Z,86.80
2023-03-11T14:37:00.362Z,86.60
2023-03-11T14:39:39.203Z,86.90
2023-03-11T14:42:32.747Z,86.70
2023-03-11T14:45:15.218Z,86.70
2023-03-11T14:48:02.198Z,86.80
2023-03-11T14:50:32.982Z,86.80
2023-03-11T14:53:16.634Z,86.90
2023-03-11T14:55:56.503Z,86.70
2023-03-11T14:58:46.422Z,87.00
2023-03-11T15:01:19.632Z,87.10
2023-03-11T15:03:56.181Z,87.20
2023-03-11T15:06:29.294Z,87.40
2023-03-11T15:09:01.880Z,87.60
2023-03-11T15:11:29.934Z,88.00
2023-03-11T15:14:22.575Z,88.20
2023-03-11T15:16:51.125Z,89.10
2023-03-11T15:19:34.680Z,88.40
2023-03-11T15:22:28.163Z,88.30
2023-03-11T15:25:01.776Z,88.30
2023-03-11T15:27:35.068Z,88.50
2023-03-11T15:30:06.120Z,88.20
2023-03-11T15:32:40.914Z,88.80
2023-03-11T15:35:08.528Z,88.60
2023-03-11T15:37:36.429Z,88.40
2023-03-11T15:40:35.293Z,88.30
2023-03-11T15:43:43.038Z,88.40
2023-03-11T15:46:11.723Z,88.40
2023-03-11T15:48:39.503Z,88.50
2023-03-11T15:51:07.175Z,88.50
2023-03-11T15:53:34.709Z,88.70
2023-03-11T15:56:11.207Z,88.70
2023-03-11T15:58:39.200Z,88.90
2023-03-11T16:01:07.669Z,88.70
2023-03-11T16:03:35.397Z,88.70
2023-03-11T16:06:02.971Z,88.90
2023-03-11T16:08:30.607Z,88.80
2023-03-11T16:10:58.423Z,88.70
2023-03-11T16:13:25.967Z,88.70
2023-03-11T16:15:53.766Z,88.80
2023-03-11T16:18:21.454Z,88.70
2023-03-11T16:20:52.094Z,88.60
2023-03-11T16:23:21.221Z,88.70
2023-03-11T16:25:49.307Z,88.60
2023-03-11T16:28:17.479Z,88.70
2023-03-11T16:30:45.515Z,88.60
2023-03-11T16:33:13.057Z,88.40
2023-03-11T16:35:40.695Z,88.20
2023-03-11T16:38:09.212Z,88.50
2023-03-11T16:40:37.264Z,88.30
2023-03-11T16:43:10.128Z,88.50
2023-03-11T16:45:37.757Z,89.10
2023-03-11T16:48:05.904Z,89.60
2023-03-11T16:50:36.258Z,89.70
2023-03-11T16:53:05.339Z,89.90
2023-03-11T16:55:33.172Z,90.00
2023-03-11T16:58:00.806Z,90.00
2023-03-11T17:00:28.532Z,90.00
2023-03-11T17:02:56.052Z,90.10
2023-03-11T17:05:23.719Z,90.10
2023-03-11T17:07:57.441Z,90.20
2023-03-11T17:10:25.113Z,90.40
2023-03-11T17:12:53.068Z,90.20
2023-03-11T17:15:20.926Z,90.20
2023-03-11T17:17:48.527Z,90.20
2023-03-11T17:20:16.848Z,90.10
2023-03-11T17:22:44.405Z,90.10
2023-03-11T17:25:11.995Z,90.10
2023-03-11T17:27:39.550Z,90.20
2023-03-11T17:30:08.184Z,90.20
2023-03-11T17:32:35.802Z,90.10
2023-03-11T17:35:03.828Z,90.00
2023-03-11T17:37:31.679Z,90.10
2023-03-11T17:39:59.261Z,90.00
2023-03-11T17:42:26.856Z,90.10
2023-03-11T17:44:57.241Z,90.00
2023-03-11T17:47:34.334Z,90.00
2023-03-11T17:50:03.246Z,89.90
2023-03-11T17:52:31.176Z,89.90
2023-03-11T17:54:58.934Z,89.70
2023-03-11T17:57:26.495Z,89.80
2023-03-11T17:59:54.173Z,89.50
2023-03-11T18:02:21.942Z,89.60
2023-03-11T18:04:54.081Z,89.50
2023-03-11T18:07:23.817Z,89.60
2023-03-11T18:09:55.452Z,89.50
2023-03-11T18:12:23.132Z,89.50
2023-03-11T18:14:50.760Z,89.40
2023-03-11T18:17:19.263Z,89.30
2023-03-11T18:19:47.276Z,89.30
2023-03-11T18:22:16.287Z,90.00
2023-03-11T18:24:43.899Z,89.20
2023-03-11T18:27:11.395Z,89.20
2023-03-11T18:29:39.263Z,89.10
2023-03-11T18:32:06.887Z,89.00
2023-03-11T18:34:34.556Z,88.90
2023-03-11T18:37:05.190Z,88.90
2023-03-11T18:39:32.809Z,89.10
2023-03-11T18:42:00.495Z,88.90
2023-03-11T18:44:30.744Z,89.10
2023-03-11T18:46:58.428Z,88.80
2023-03-11T18:49:26.091Z,88.90
2023-03-11T18:51:53.648Z,88.80
2023-03-11T18:54:21.699Z,88.70
2023-03-11T18:56:50.595Z,88.80
2023-03-11T18:59:18.411Z,88.70
2023-03-11T19:01:46.001Z,88.70
2023-03-11T19:04:13.790Z,88.70
2023-03-11T19:06:41.378Z,88.60
2023-03-11T19:09:11.217Z,88.50
2023-03-11T19:11:38.842Z,88.50
2023-03-11T19:14:06.555Z,88.50
2023-03-11T19:16:34.256Z,88.50
2023-03-11T19:19:02.016Z,88.50
2023-03-11T19:21:29.742Z,88.50
2023-03-11T19:23:58.121Z,88.40
2023-03-11T19:26:43.178Z,88.30
2023-03-11T19:29:11.969Z,88.30
2023-03-11T19:31:39.543Z,88.30
2023-03-11T19:34:07.216Z,88.30
2023-03-11T19:36:35.084Z,88.30
2023-03-11T19:39:02.661Z,88.20
2023-03-11T19:41:30.324Z,88.10
2023-03-11T19:43:57.888Z,87.90
2023-03-11T19:46:25.840Z,88.00
2023-03-11T19:48:56.972Z,88.00
2023-03-11T19:51:26.715Z,88.00
2023-03-11T19:53:56.253Z,88.00
2023-03-11T19:56:27.812Z,88.00
2023-03-11T19:58:56.586Z,88.00
2023-03-11T20:01:25.641Z,88.00
2023-03-11T20:03:53.335Z,88.00
2023-03-11T20:06:22.971Z,87.90
2023-03-11T20:08:53.526Z,87.80
2023-03-11T20:11:21.301Z,87.80
2023-03-11T20:13:48.939Z,87.90
2023-03-11T20:16:19.463Z,88.10
2023-03-11T20:18:51.304Z,87.90
2023-03-11T20:21:19.147Z,87.90
2023-03-11T20:23:46.763Z,87.80
2023-03-11T20:26:16.392Z,87.80
2023-03-11T20:28:44.299Z,87.70
2023-03-11T20:31:18.161Z,87.80
2023-03-11T20:33:46.561Z,87.40
2023-03-11T20:36:17.853Z,87.50
2023-03-11T20:38:45.727Z,87.30
2023-03-11T20:41:13.711Z,87.30
2023-03-11T20:43:42.258Z,87.30
2023-03-11T20:46:11.110Z,87.60
2023-03-11T20:48:39.814Z,87.30
2023-03-11T20:51:14.011Z,87.30
2023-03-11T20:53:42.087Z,87.20
2023-03-11T20:56:18.882Z,87.10
2023-03-11T20:58:48.970Z,87.10
2023-03-11T21:01:23.183Z,86.90
2023-03-11T21:03:56.543Z,86.70
2023-03-11T21:06:35.747Z,86.80
2023-03-11T21:09:06.482Z,86.60
2023-03-11T21:11:34.805Z,86.30
2023-03-11T21:14:02.799Z,86.30
2023-03-11T21:16:31.497Z,86.10
2023-03-11T21:18:59.447Z,86.20
2023-03-11T21:21:27.099Z,86.00
2023-03-11T21:23:54.997Z,85.70
2023-03-11T21:26:22.656Z,85.70
2023-03-11T21:28:53.540Z,85.50
2023-03-11T21:31:23.289Z,85.80
2023-03-11T21:33:55.646Z,85.80
2023-03-11T21:36:23.730Z,85.50
2023-03-11T21:38:51.795Z,85.50
2023-03-11T21:41:24.235Z,85.70
2023-03-11T21:43:53.455Z,85.60
2023-03-11T21:46:24.244Z,85.50
2023-03-11T21:48:52.054Z,85.40
2023-03-11T21:51:21.326Z,85.40
2023-03-11T21:53:49.120Z,85.40
2023-03-11T21:56:17.042Z,85.40
2023-03-11T21:58:44.969Z,85.50
2023-03-11T22:01:13.195Z,85.30
2023-03-11T22:03:42.753Z,85.10
2023-03-11T22:06:12.557Z,85.10
2023-03-11T22:08:43.170Z,85.00
2023-03-11T22:11:17.912Z,85.00
2023-03-11T22:13:47.508Z,84.80
2023-03-11T22:16:15.340Z,84.60
2023-03-11T22:18:43.482Z,84.50
2023-03-11T22:21:11.558Z,84.60
2023-03-11T22:23:39.290Z,84.50
2023-03-11T22:26:06.884Z,84.50
2023-03-11T22:28:34.434Z,84.30
2023-03-11T22:31:10.427Z,84.20
2023-03-11T22:33:38.130Z,84.30
2023-03-11T22:36:06.511Z,84.10
2023-03-11T22:38:34.529Z,84.20
2023-03-11T22:41:05.659Z,84.10
2023-03-11T22:43:34.021Z,84.10
2023-03-11T22:46:02.633Z,83.80
2023-03-11T22:48:30.495Z,83.80
2023-03-11T22:50:58.377Z,83.70
2023-03-11T22:53:26.019Z,83.70
2023-03-11T22:55:53.850Z,83.70
2023-03-11T22:58:21.664Z,83.60
2023-03-11T23:00:49.335Z,83.70
2023-03-11T23:03:17.457Z,83.70
2023-03-11T23:05:46.787Z,84.20
2023-03-11T23:08:16.686Z,83.80
2023-03-11T23:10:46.850Z,84.40
2023-03-11T23:13:14.880Z,83.80
2023-03-11T23:15:45.561Z,83.80
2023-03-11T23:18:14.170Z,84.00
2023-03-11T23:20:43.691Z,83.60
2023-03-11T23:23:12.382Z,83.70
2023-03-11T23:25:41.582Z,83.70
2023-03-11T23:28:09.396Z,83.50
2023-03-11T23:30:37.056Z,83.40
2023-03-11T23:33:04.750Z,83.40
2023-03-11T23:35:33.507Z,83.40
2023-03-11T23:38:01.353Z,83.40
2023-03-11T23:40:28.886Z,83.10
2023-03-11T23:42:56.523Z,83.50
2023-03-11T23:45:24.147Z,83.20
2023-03-11T23:47:51.758Z,83.00
2023-03-11T23:50:19.374Z,83.00
2023-03-11T23:52:46.932Z,83.20
2023-03-11T23:55:14.527Z,83.00
2023-03-11T23:57:42.143Z,82.90
